sensor_id;sensor_type;location;lat;lon;timestamp;pressure;altitude;pressure_sealevel;temperature;humidity
78299;BME280;67556;55.656;12.590;2023-06-26T00:00:05;101557.16;;;21.30;66.38
78299;BME280;67556;55.656;12.590;2023-06-26T00:02:33;101557.16;;;21.31;66.45
78299;BME280;67556;55.656;12.590;2023-06-26T00:05:00;101554.50;;;21.33;66.65
78299;BME280;67556;55.656;12.590;2023-06-26T00:07:28;101549.03;;;21.30;67.05
78299;BME280;67556;55.656;12.590;2023-06-26T00:09:56;101550.81;;;21.26;67.49
78299;BME280;67556;55.656;12.590;2023-06-26T00:12:34;101554.44;;;21.21;67.92
78299;BME280;67556;55.656;12.590;2023-06-26T00:15:20;101549.84;;;21.10;68.43
78299;BME280;67556;55.656;12.590;2023-06-26T00:18:05;101548.94;;;21.10;68.75
78299;BME280;67556;55.656;12.590;2023-06-26T00:20:51;101549.88;;;21.07;69.00
78299;BME280;67556;55.656;12.590;2023-06-26T00:23:36;101543.53;;;21.04;69.32
78299;BME280;67556;55.656;12.590;2023-06-26T00:26:09;101539.91;;;21.05;69.10
78299;BME280;67556;55.656;12.590;2023-06-26T00:28:55;101546.22;;;21.04;69.49
78299;BME280;67556;55.656;12.590;2023-06-26T00:31:38;101538.09;;;21.05;69.55
78299;BME280;67556;55.656;12.590;2023-06-26T00:34:23;101527.25;;;21.02;70.09
78299;BME280;67556;55.656;12.590;2023-06-26T00:36:51;101532.66;;;21.02;70.14
78299;BME280;67556;55.656;12.590;2023-06-26T00:39:25;101529.97;;;21.04;70.52
78299;BME280;67556;55.656;12.590;2023-06-26T00:42:03;101524.53;;;21.01;70.53
78299;BME280;67556;55.656;12.590;2023-06-26T00:44:48;101526.31;;;20.91;70.93
78299;BME280;67556;55.656;12.590;2023-06-26T00:47:17;101513.63;;;20.81;71.60
78299;BME280;67556;55.656;12.590;2023-06-26T00:49:52;101519.94;;;20.80;71.88
78299;BME280;67556;55.656;12.590;2023-06-26T00:52:40;101512.66;;;20.73;71.97
78299;BME280;67556;55.656;12.590;2023-06-26T00:55:10;101508.13;;;20.62;72.36
78299;BME280;67556;55.656;12.590;2023-06-26T00:57:56;101514.44;;;20.61;72.38
78299;BME280;67556;55.656;12.590;2023-06-26T01:00:22;101509.91;;;20.59;72.39
78299;BME280;67556;55.656;12.590;2023-06-26T01:03:07;101510.81;;;20.56;72.66
78299;BME280;67556;55.656;12.590;2023-06-26T01:05:34;101512.59;;;20.54;72.51
78299;BME280;67556;55.656;12.590;2023-06-26T01:08:21;101508.00;;;20.47;73.39
78299;BME280;67556;55.656;12.590;2023-06-26T01:10:49;101507.03;;;20.39;73.66
78299;BME280;67556;55.656;12.590;2023-06-26T01:13:35;101496.19;;;20.33;73.79
78299;BME280;67556;55.656;12.590;2023-06-26T01:16:11;101507.94;;;20.38;73.72
78299;BME280;67556;55.656;12.590;2023-06-26T01:19:09;101491.66;;;20.30;73.57
78299;BME280;67556;55.656;12.590;2023-06-26T01:21:38;101489.84;;;20.29;73.49
78299;BME280;67556;55.656;12.590;2023-06-26T01:24:32;101495.22;;;20.18;73.95
78299;BME280;67556;55.656;12.590;2023-06-26T01:27:09;101492.47;;;20.15;73.55
78299;BME280;67556;55.656;12.590;2023-06-26T01:30:07;101485.28;;;20.21;73.53
78299;BME280;67556;55.656;12.590;2023-06-26T01:32:34;101483.47;;;20.15;73.72
78299;BME280;67556;55.656;12.590;2023-06-26T01:35:20;101487.03;;;20.12;73.84
78299;BME280;67556;55.656;12.590;2023-06-26T01:37:47;101484.28;;;20.03;74.32
78299;BME280;67556;55.656;12.590;2023-06-26T01:40:32;101485.19;;;20.04;74.76
78299;BME280;67556;55.656;12.590;2023-06-26T01:43:00;101481.59;;;20.08;74.89
78299;BME280;67556;55.656;12.590;2023-06-26T01:45:48;101480.69;;;20.09;75.12
78299;BME280;67556;55.656;12.590;2023-06-26T01:48:22;101471.66;;;20.05;75.08
78299;BME280;67556;55.656;12.590;2023-06-26T01:51:02;101479.75;;;20.02;74.94
78299;BME280;67556;55.656;12.590;2023-06-26T01:53:52;101481.50;;;19.97;75.27
78299;BME280;67556;55.656;12.590;2023-06-26T01:56:21;101469.78;;;19.93;75.31
78299;BME280;67556;55.656;12.590;2023-06-26T01:59:09;101469.75;;;19.92;75.46
78299;BME280;67556;55.656;12.590;2023-06-26T02:01:39;101461.66;;;19.89;75.52
78299;BME280;67556;55.656;12.590;2023-06-26T02:04:24;101463.38;;;19.84;75.40
78299;BME280;67556;55.656;12.590;2023-06-26T02:06:57;101465.25;;;19.89;75.93
78299;BME280;67556;55.656;12.590;2023-06-26T02:09:42;101463.41;;;19.87;75.97
78299;BME280;67556;55.656;12.590;2023-06-26T02:12:09;101453.50;;;19.87;76.64
78299;BME280;67556;55.656;12.590;2023-06-26T02:14:55;101452.59;;;19.85;77.31
78299;BME280;67556;55.656;12.590;2023-06-26T02:17:22;101445.34;;;19.83;77.67
78299;BME280;67556;55.656;12.590;2023-06-26T02:20:15;101446.22;;;19.80;77.91
78299;BME280;67556;55.656;12.590;2023-06-26T02:22:41;101444.44;;;19.78;78.18
78299;BME280;67556;55.656;12.590;2023-06-26T02:25:26;101441.69;;;19.75;78.51
78299;BME280;67556;55.656;12.590;2023-06-26T02:28:12;101440.78;;;19.74;78.46
78299;BME280;67556;55.656;12.590;2023-06-26T02:30:40;101447.97;;;19.69;78.55
78299;BME280;67556;55.656;12.590;2023-06-26T02:33:25;101445.22;;;19.67;78.47
78299;BME280;67556;55.656;12.590;2023-06-26T02:35:51;101442.56;;;19.69;78.24
78299;BME280;67556;55.656;12.590;2023-06-26T02:38:36;101435.34;;;19.68;78.36
78299;BME280;67556;55.656;12.590;2023-06-26T02:41:03;101445.25;;;19.71;77.95
78299;BME280;67556;55.656;12.590;2023-06-26T02:43:47;101432.63;;;19.66;77.70
78299;BME280;67556;55.656;12.590;2023-06-26T02:46:15;101434.47;;;19.74;77.46
78299;BME280;67556;55.656;12.590;2023-06-26T02:49:00;101439.03;;;19.78;77.56
78299;BME280;67556;55.656;12.590;2023-06-26T02:51:27;101434.50;;;19.77;77.57
78299;BME280;67556;55.656;12.590;2023-06-26T02:54:12;101435.38;;;19.76;77.50
78299;BME280;67556;55.656;12.590;2023-06-26T02:56:38;101428.22;;;19.78;77.89
78299;BME280;67556;55.656;12.590;2023-06-26T02:59:23;101428.25;;;19.82;78.52
78299;BME280;67556;55.656;12.590;2023-06-26T03:01:51;101435.44;;;19.83;78.94
78299;BME280;67556;55.656;12.590;2023-06-26T03:04:18;101424.63;;;19.83;78.83
78299;BME280;67556;55.656;12.590;2023-06-26T03:07:05;101424.66;;;19.85;79.10
78299;BME280;67556;55.656;12.590;2023-06-26T03:09:31;101431.88;;;19.87;80.13
78299;BME280;67556;55.656;12.590;2023-06-26T03:12:16;101430.97;;;19.87;80.08
78299;BME280;67556;55.656;12.590;2023-06-26T03:14:43;101424.66;;;19.88;80.11
78299;BME280;67556;55.656;12.590;2023-06-26T03:17:29;101431.00;;;19.90;80.23
78299;BME280;67556;55.656;12.590;2023-06-26T03:20:14;101422.84;;;19.88;80.26
78299;BME280;67556;55.656;12.590;2023-06-26T03:22:41;101414.75;;;19.87;80.28
78299;BME280;67556;55.656;12.590;2023-06-26T03:25:26;101419.28;;;19.89;80.09
78299;BME280;67556;55.656;12.590;2023-06-26T03:27:53;101413.91;;;19.96;79.77
78299;BME280;67556;55.656;12.590;2023-06-26T03:30:38;101418.44;;;19.98;79.40
78299;BME280;67556;55.656;12.590;2023-06-26T03:33:06;101419.34;;;20.00;79.35
78299;BME280;67556;55.656;12.590;2023-06-26T03:35:51;101407.66;;;20.03;79.20
78299;BME280;67556;55.656;12.590;2023-06-26T03:38:17;101407.63;;;20.01;78.73
78299;BME280;67556;55.656;12.590;2023-06-26T03:41:02;101405.88;;;20.06;78.51
78299;BME280;67556;55.656;12.590;2023-06-26T03:43:47;101406.75;;;20.10;78.06
78299;BME280;67556;55.656;12.590;2023-06-26T03:46:14;101397.81;;;20.17;77.54
78299;BME280;67556;55.656;12.590;2023-06-26T03:49:01;101402.34;;;20.23;77.53
78299;BME280;67556;55.656;12.590;2023-06-26T03:51:27;101397.84;;;20.25;77.71
78299;BME280;67556;55.656;12.590;2023-06-26T03:54:12;101398.75;;;20.27;77.36
78299;BME280;67556;55.656;12.590;2023-06-26T03:56:39;101394.25;;;20.30;77.14
78299;BME280;67556;55.656;12.590;2023-06-26T03:59:23;101385.25;;;20.31;76.93
78299;BME280;67556;55.656;12.590;2023-06-26T04:01:50;101387.97;;;20.31;77.06
78299;BME280;67556;55.656;12.590;2023-06-26T04:04:37;101385.25;;;20.28;77.18
78299;BME280;67556;55.656;12.590;2023-06-26T04:07:05;101382.50;;;20.27;77.52
78299;BME280;67556;55.656;12.590;2023-06-26T04:09:50;101378.91;;;20.25;77.71
78299;BME280;67556;55.656;12.590;2023-06-26T04:12:19;101378.00;;;20.26;77.92
78299;BME280;67556;55.656;12.590;2023-06-26T04:15:05;101382.56;;;20.33;77.71
78299;BME280;67556;55.656;12.590;2023-06-26T04:17:31;101376.25;;;20.32;77.41
78299;BME280;67556;55.656;12.590;2023-06-26T04:20:18;101374.44;;;20.34;77.24
78299;BME280;67556;55.656;12.590;2023-06-26T04:22:45;101370.88;;;20.40;76.85
78299;BME280;67556;55.656;12.590;2023-06-26T04:25:31;101370.88;;;20.40;76.80
78299;BME280;67556;55.656;12.590;2023-06-26T04:27:57;101373.59;;;20.44;76.04
78299;BME280;67556;55.656;12.590;2023-06-26T04:30:42;101368.16;;;20.46;75.91
78299;BME280;67556;55.656;12.590;2023-06-26T04:33:09;101364.63;;;20.49;75.23
78299;BME280;67556;55.656;12.590;2023-06-26T04:35:57;101361.91;;;20.50;75.17
78299;BME280;67556;55.656;12.590;2023-06-26T04:38:23;101354.69;;;20.51;74.80
78299;BME280;67556;55.656;12.590;2023-06-26T04:40:55;101352.91;;;20.56;74.37
78299;BME280;67556;55.656;12.590;2023-06-26T04:43:38;101353.81;;;20.62;73.30
78299;BME280;67556;55.656;12.590;2023-06-26T04:46:05;101352.94;;;20.66;73.38
78299;BME280;67556;55.656;12.590;2023-06-26T04:48:43;101349.34;;;20.71;72.73
78299;BME280;67556;55.656;12.590;2023-06-26T04:51:13;101352.97;;;20.79;72.29
78299;BME280;67556;55.656;12.590;2023-06-26T04:53:40;101350.28;;;20.86;72.21
78299;BME280;67556;55.656;12.590;2023-06-26T04:56:25;101349.38;;;20.87;71.70
78299;BME280;67556;55.656;12.590;2023-06-26T04:59:06;101350.28;;;20.92;71.05
78299;BME280;67556;55.656;12.590;2023-06-26T05:01:38;101341.25;;;20.95;69.81
78299;BME280;67556;55.656;12.590;2023-06-26T05:04:05;101336.75;;;20.99;69.70
78299;BME280;67556;55.656;12.590;2023-06-26T05:06:45;101333.16;;;21.07;69.49
78299;BME280;67556;55.656;12.590;2023-06-26T05:09:17;101330.44;;;21.23;69.20
78299;BME280;67556;55.656;12.590;2023-06-26T05:11:50;101320.47;;;21.28;69.00
78299;BME280;67556;55.656;12.590;2023-06-26T05:14:23;101328.63;;;21.25;68.42
78299;BME280;67556;55.656;12.590;2023-06-26T05:17:08;101324.13;;;21.25;68.38
78299;BME280;67556;55.656;12.590;2023-06-26T05:19:53;101318.69;;;21.31;67.85
78299;BME280;67556;55.656;12.590;2023-06-26T05:22:21;101321.44;;;21.33;67.81
78299;BME280;67556;55.656;12.590;2023-06-26T05:24:48;101314.22;;;21.38;67.88
78299;BME280;67556;55.656;12.590;2023-06-26T05:27:33;101306.97;;;21.46;67.36
78299;BME280;67556;55.656;12.590;2023-06-26T05:30:19;101313.28;;;21.51;67.18
78299;BME280;67556;55.656;12.590;2023-06-26T05:32:49;101307.88;;;21.54;66.64
78299;BME280;67556;55.656;12.590;2023-06-26T05:35:16;101304.25;;;21.51;65.84
78299;BME280;67556;55.656;12.590;2023-06-26T05:38:03;101305.16;;;21.50;65.93
78299;BME280;67556;55.656;12.590;2023-06-26T05:40:30;101300.66;;;21.46;65.54
78299;BME280;67556;55.656;12.590;2023-06-26T05:43:01;101301.53;;;21.43;65.58
78299;BME280;67556;55.656;12.590;2023-06-26T05:45:30;101301.53;;;21.43;65.45
78299;BME280;67556;55.656;12.590;2023-06-26T05:48:19;101301.53;;;21.43;65.47
78299;BME280;67556;55.656;12.590;2023-06-26T05:50:45;101288.91;;;21.39;65.44
78299;BME280;67556;55.656;12.590;2023-06-26T05:53:32;101287.09;;;21.38;65.51
78299;BME280;67556;55.656;12.590;2023-06-26T05:55:59;101285.28;;;21.38;65.25
78299;BME280;67556;55.656;12.590;2023-06-26T05:58:45;101287.09;;;21.47;64.93
78299;BME280;67556;55.656;12.590;2023-06-26T06:01:11;101275.31;;;21.48;64.28
78299;BME280;67556;55.656;12.590;2023-06-26T06:03:44;101281.66;;;21.55;64.66
78299;BME280;67556;55.656;12.590;2023-06-26T06:06:29;101277.13;;;21.66;64.04
78299;BME280;67556;55.656;12.590;2023-06-26T06:08:57;101284.31;;;21.72;65.22
78299;BME280;67556;55.656;12.590;2023-06-26T06:11:40;101283.41;;;21.76;64.87
78299;BME280;67556;55.656;12.590;2023-06-26T06:14:25;101273.47;;;21.75;64.76
78299;BME280;67556;55.656;12.590;2023-06-26T06:16:51;101270.75;;;21.68;65.44
78299;BME280;67556;55.656;12.590;2023-06-26T06:19:32;101278.91;;;21.70;63.99
78299;BME280;67556;55.656;12.590;2023-06-26T06:22:10;101275.28;;;21.71;64.68
78299;BME280;67556;55.656;12.590;2023-06-26T06:24:50;101277.97;;;21.76;64.26
78299;BME280;67556;55.656;12.590;2023-06-26T06:27:28;101272.53;;;21.83;64.97
78299;BME280;67556;55.656;12.590;2023-06-26T06:30:13;101266.13;;;21.98;64.61
78299;BME280;67556;55.656;12.590;2023-06-26T06:32:40;101260.72;;;21.93;64.02
78299;BME280;67556;55.656;12.590;2023-06-26T06:35:25;101272.44;;;22.06;63.50
78299;BME280;67556;55.656;12.590;2023-06-26T06:37:52;101270.59;;;22.11;62.81
78299;BME280;67556;55.656;12.590;2023-06-26T06:40:38;101270.63;;;22.08;62.82
78299;BME280;67556;55.656;12.590;2023-06-26T06:43:23;101266.09;;;22.07;62.93
78299;BME280;67556;55.656;12.590;2023-06-26T06:46:08;101267.88;;;22.19;62.11
78299;BME280;67556;55.656;12.590;2023-06-26T06:48:35;101268.81;;;22.13;61.74
78299;BME280;67556;55.656;12.590;2023-06-26T06:51:20;101263.31;;;22.24;61.46
78299;BME280;67556;55.656;12.590;2023-06-26T06:53:46;101257.91;;;22.24;60.47
78299;BME280;67556;55.656;12.590;2023-06-26T06:56:17;101256.13;;;22.22;60.28
78299;BME280;67556;55.656;12.590;2023-06-26T06:59:02;101253.44;;;22.17;59.94
78299;BME280;67556;55.656;12.590;2023-06-26T07:01:28;101257.91;;;22.20;60.04
78299;BME280;67556;55.656;12.590;2023-06-26T07:04:13;101259.69;;;22.28;59.77
78299;BME280;67556;55.656;12.590;2023-06-26T07:06:40;101256.06;;;22.28;59.80
78299;BME280;67556;55.656;12.590;2023-06-26T07:09:25;101252.44;;;22.30;59.91
78299;BME280;67556;55.656;12.590;2023-06-26T07:11:53;101256.94;;;22.36;60.07
78299;BME280;67556;55.656;12.590;2023-06-26T07:14:27;101259.63;;;22.42;59.02
78299;BME280;67556;55.656;12.590;2023-06-26T07:17:12;101257.78;;;22.44;59.48
78299;BME280;67556;55.656;12.590;2023-06-26T07:19:38;101257.75;;;22.46;59.84
78299;BME280;67556;55.656;12.590;2023-06-26T07:22:23;101265.06;;;22.39;59.18
78299;BME280;67556;55.656;12.590;2023-06-26T07:24:50;101255.94;;;22.51;59.40
78299;BME280;67556;55.656;12.590;2023-06-26T07:27:20;101261.34;;;22.55;59.49
78299;BME280;67556;55.656;12.590;2023-06-26T07:30:06;101250.41;;;22.64;58.88
78299;BME280;67556;55.656;12.590;2023-06-26T07:32:35;101251.19;;;22.79;58.10
78299;BME280;67556;55.656;12.590;2023-06-26T07:35:17;101246.66;;;22.84;57.32
78299;BME280;67556;55.656;12.590;2023-06-26T07:38:01;101245.72;;;22.83;57.51
78299;BME280;67556;55.656;12.590;2023-06-26T07:40:34;101234.81;;;22.94;56.90
78299;BME280;67556;55.656;12.590;2023-06-26T07:43:20;101233.81;;;23.04;56.75
78299;BME280;67556;55.656;12.590;2023-06-26T07:45:50;101233.75;;;23.10;56.19
78299;BME280;67556;55.656;12.590;2023-06-26T07:48:20;101221.94;;;23.14;55.54
78299;BME280;67556;55.656;12.590;2023-06-26T07:51:06;101221.88;;;23.22;55.97
78299;BME280;67556;55.656;12.590;2023-06-26T07:53:32;101221.84;;;23.24;55.68
78299;BME280;67556;55.656;12.590;2023-06-26T07:56:17;101220.94;;;23.22;55.95
78299;BME280;67556;55.656;12.590;2023-06-26T07:58:45;101215.50;;;23.25;55.46
78299;BME280;67556;55.656;12.590;2023-06-26T08:01:21;101211.84;;;23.27;55.07
78299;BME280;67556;55.656;12.590;2023-06-26T08:03:57;101207.22;;;23.35;55.16
78299;BME280;67556;55.656;12.590;2023-06-26T08:06:42;101199.81;;;23.50;54.10
78299;BME280;67556;55.656;12.590;2023-06-26T08:09:08;101197.13;;;23.47;54.78
78299;BME280;67556;55.656;12.590;2023-06-26T08:11:42;101196.16;;;23.51;54.06
78299;BME280;67556;55.656;12.590;2023-06-26T08:14:29;101197.94;;;23.55;53.26
78299;BME280;67556;55.656;12.590;2023-06-26T08:16:57;101187.88;;;23.61;53.41
78299;BME280;67556;55.656;12.590;2023-06-26T08:19:43;101181.53;;;23.65;53.62
78299;BME280;67556;55.656;12.590;2023-06-26T08:22:09;101179.69;;;23.64;52.57
78299;BME280;67556;55.656;12.590;2023-06-26T08:24:52;101177.84;;;23.68;53.22
78299;BME280;67556;55.656;12.590;2023-06-26T08:27:25;101176.84;;;23.75;52.57
78299;BME280;67556;55.656;12.590;2023-06-26T08:29:58;101172.19;;;23.86;51.99
78299;BME280;67556;55.656;12.590;2023-06-26T08:32:35;101167.63;;;23.87;52.14
78299;BME280;67556;55.656;12.590;2023-06-26T08:35:04;101170.22;;;23.96;52.26
78299;BME280;67556;55.656;12.590;2023-06-26T08:37:50;101155.59;;;24.05;51.88
78299;BME280;67556;55.656;12.590;2023-06-26T08:40:23;101149.34;;;23.97;52.12
78299;BME280;67556;55.656;12.590;2023-06-26T08:42:57;101159.28;;;24.01;51.59
78299;BME280;67556;55.656;12.590;2023-06-26T08:45:32;101149.28;;;24.01;51.33
78299;BME280;67556;55.656;12.590;2023-06-26T08:48:12;101139.25;;;24.05;50.96
78299;BME280;67556;55.656;12.590;2023-06-26T08:50:49;101142.00;;;24.02;51.16
78299;BME280;67556;55.656;12.590;2023-06-26T08:53:29;101134.75;;;24.04;51.27
78299;BME280;67556;55.656;12.590;2023-06-26T08:56:17;101136.56;;;24.03;51.45
78299;BME280;67556;55.656;12.590;2023-06-26T08:58:46;101122.81;;;24.12;51.55
78299;BME280;67556;55.656;12.590;2023-06-26T09:01:27;101124.41;;;24.27;51.99
78299;BME280;67556;55.656;12.590;2023-06-26T09:04:05;101119.78;;;24.32;51.42
78299;BME280;67556;55.656;12.590;2023-06-26T09:06:34;101117.13;;;24.28;51.78
78299;BME280;67556;55.656;12.590;2023-06-26T09:09:19;101112.84;;;24.11;52.24
78299;BME280;67556;55.656;12.590;2023-06-26T09:12:04;101113.91;;;24.03;52.37
78299;BME280;67556;55.656;12.590;2023-06-26T09:14:31;101114.88;;;23.97;52.90
78299;BME280;67556;55.656;12.590;2023-06-26T09:17:01;101103.94;;;24.00;53.38
78299;BME280;67556;55.656;12.590;2023-06-26T09:19:48;101101.03;;;24.12;53.29
78299;BME280;67556;55.656;12.590;2023-06-26T09:22:14;101092.84;;;24.15;52.84
78299;BME280;67556;55.656;12.590;2023-06-26T09:24:49;101088.47;;;24.04;53.00
78299;BME280;67556;55.656;12.590;2023-06-26T09:27:23;101088.44;;;24.07;53.95
78299;BME280;67556;55.656;12.590;2023-06-26T09:30:09;101077.31;;;24.21;54.00
78299;BME280;67556;55.656;12.590;2023-06-26T09:32:36;101073.31;;;24.45;54.00
78299;BME280;67556;55.656;12.590;2023-06-26T09:35:22;101070.38;;;24.55;53.51
78299;BME280;67556;55.656;12.590;2023-06-26T09:37:49;101070.13;;;24.69;53.52
78299;BME280;67556;55.656;12.590;2023-06-26T09:40:34;101070.06;;;24.74;53.05
78299;BME280;67556;55.656;12.590;2023-06-26T09:43:03;101065.41;;;24.79;53.22
78299;BME280;67556;55.656;12.590;2023-06-26T09:45:45;101066.22;;;24.84;53.08
78299;BME280;67556;55.656;12.590;2023-06-26T09:48:21;101059.13;;;24.75;53.05
78299;BME280;67556;55.656;12.590;2023-06-26T09:51:06;101062.66;;;24.82;52.92
78299;BME280;67556;55.656;12.590;2023-06-26T09:53:34;101060.06;;;24.74;53.41
78299;BME280;67556;55.656;12.590;2023-06-26T09:56:15;101058.28;;;24.72;53.37
78299;BME280;67556;55.656;12.590;2023-06-26T09:59:00;101051.81;;;24.79;53.20
78299;BME280;67556;55.656;12.590;2023-06-26T10:01:27;101053.59;;;24.80;52.86
78299;BME280;67556;55.656;12.590;2023-06-26T10:04:07;101040.34;;;24.60;53.44
78299;BME280;67556;55.656;12.590;2023-06-26T10:06:46;101045.78;;;24.61;53.79
78299;BME280;67556;55.656;12.590;2023-06-26T10:09:18;101044.81;;;24.64;53.50
78299;BME280;67556;55.656;12.590;2023-06-26T10:12:06;101051.81;;;24.77;53.68
78299;BME280;67556;55.656;12.590;2023-06-26T10:14:35;101046.09;;;24.91;53.26
78299;BME280;67556;55.656;12.590;2023-06-26T10:17:21;101052.09;;;25.10;52.48
78299;BME280;67556;55.656;12.590;2023-06-26T10:19:50;101038.16;;;25.24;52.70
78299;BME280;67556;55.656;12.590;2023-06-26T10:22:41;101046.81;;;25.44;51.83
78299;BME280;67556;55.656;12.590;2023-06-26T10:25:23;101039.78;;;25.34;51.18
78299;BME280;67556;55.656;12.590;2023-06-26T10:28:08;101036.16;;;25.32;51.93
78299;BME280;67556;55.656;12.590;2023-06-26T10:30:55;101040.88;;;25.25;51.77
78299;BME280;67556;55.656;12.590;2023-06-26T10:33:29;101044.59;;;25.21;52.01
78299;BME280;67556;55.656;12.590;2023-06-26T10:36:16;101038.16;;;25.24;51.92
78299;BME280;67556;55.656;12.590;2023-06-26T10:38:51;101015.56;;;25.20;52.03
78299;BME280;67556;55.656;12.590;2023-06-26T10:41:37;101024.22;;;25.39;51.85
78299;BME280;67556;55.656;12.590;2023-06-26T10:44:09;101012.41;;;25.38;51.25
78299;BME280;67556;55.656;12.590;2023-06-26T10:46:56;101014.75;;;25.55;51.08
78299;BME280;67556;55.656;12.590;2023-06-26T10:49:25;101019.16;;;25.61;50.59
78299;BME280;67556;55.656;12.590;2023-06-26T10:52:12;101008.81;;;25.75;50.69
78299;BME280;67556;55.656;12.590;2023-06-26T10:54:39;101007.28;;;25.63;50.22
78299;BME280;67556;55.656;12.590;2023-06-26T10:57:25;101012.25;;;25.46;50.57
78299;BME280;67556;55.656;12.590;2023-06-26T11:00:09;101004.28;;;25.37;51.17
78299;BME280;67556;55.656;12.590;2023-06-26T11:02:58;101000.53;;;25.41;50.42
78299;BME280;67556;55.656;12.590;2023-06-26T11:05:27;100988.22;;;25.62;50.10
78299;BME280;67556;55.656;12.590;2023-06-26T11:08:14;100991.38;;;25.84;49.22
78299;BME280;67556;55.656;12.590;2023-06-26T11:11:02;100999.75;;;25.73;49.57
78299;BME280;67556;55.656;12.590;2023-06-26T11:13:48;100985.66;;;25.93;49.59
78299;BME280;67556;55.656;12.590;2023-06-26T11:16:15;100998.94;;;26.08;48.71
78299;BME280;67556;55.656;12.590;2023-06-26T11:19:01;101004.16;;;26.16;48.53
78299;BME280;67556;55.656;12.590;2023-06-26T11:21:46;101002.72;;;26.37;48.67
78299;BME280;67556;55.656;12.590;2023-06-26T11:24:14;101005.28;;;26.43;47.98
78299;BME280;67556;55.656;12.590;2023-06-26T11:27:03;101006.00;;;26.51;48.11
78299;BME280;67556;55.656;12.590;2023-06-26T11:29:31;101003.09;;;26.57;47.67
78299;BME280;67556;55.656;12.590;2023-06-26T11:32:17;100994.63;;;26.67;47.58
78299;BME280;67556;55.656;12.590;2023-06-26T11:34:43;100993.44;;;26.77;47.29
78299;BME280;67556;55.656;12.590;2023-06-26T11:37:29;100997.13;;;26.76;46.87
78299;BME280;67556;55.656;12.590;2023-06-26T11:39:56;101002.84;;;26.67;46.79
78299;BME280;67556;55.656;12.590;2023-06-26T11:42:48;100997.63;;;26.59;46.94
78299;BME280;67556;55.656;12.590;2023-06-26T11:45:43;100989.00;;;26.73;46.96
78299;BME280;67556;55.656;12.590;2023-06-26T11:48:29;100987.13;;;26.41;47.31
78299;BME280;67556;55.656;12.590;2023-06-26T11:50:55;100985.81;;;26.23;47.97
78299;BME280;67556;55.656;12.590;2023-06-26T11:53:30;100992.97;;;26.27;48.16
78299;BME280;67556;55.656;12.590;2023-06-26T11:55:59;100999.38;;;26.26;48.61
78299;BME280;67556;55.656;12.590;2023-06-26T11:58:57;100990.19;;;26.30;48.43
78299;BME280;67556;55.656;12.590;2023-06-26T12:01:45;100989.22;;;26.31;48.82
78299;BME280;67556;55.656;12.590;2023-06-26T12:04:15;100989.09;;;26.01;48.64
78299;BME280;67556;55.656;12.590;2023-06-26T12:07:01;100973.97;;;25.88;49.29
78299;BME280;67556;55.656;12.590;2023-06-26T12:09:49;100971.31;;;25.85;49.74
78299;BME280;67556;55.656;12.590;2023-06-26T12:12:35;100973.47;;;25.69;49.87
78299;BME280;67556;55.656;12.590;2023-06-26T12:15:02;100964.69;;;25.56;50.69
78299;BME280;67556;55.656;12.590;2023-06-26T12:17:30;100948.81;;;25.36;51.16
78299;BME280;67556;55.656;12.590;2023-06-26T12:20:21;100943.84;;;25.17;51.74
78299;BME280;67556;55.656;12.590;2023-06-26T12:22:48;100939.47;;;25.06;51.87
78299;BME280;67556;55.656;12.590;2023-06-26T12:25:21;100940.56;;;24.99;52.21
78299;BME280;67556;55.656;12.590;2023-06-26T12:27:51;100926.09;;;24.94;52.29
78299;BME280;67556;55.656;12.590;2023-06-26T12:30:34;100923.38;;;24.96;52.39
78299;BME280;67556;55.656;12.590;2023-06-26T12:33:12;100924.44;;;24.88;52.72
78299;BME280;67556;55.656;12.590;2023-06-26T12:35:39;100907.34;;;24.82;52.88
78299;BME280;67556;55.656;12.590;2023-06-26T12:38:07;100914.84;;;24.71;53.03
78299;BME280;67556;55.656;12.590;2023-06-26T12:40:35;100913.19;;;24.62;53.77
78299;BME280;67556;55.656;12.590;2023-06-26T12:43:25;100906.91;;;24.58;54.53
78299;BME280;67556;55.656;12.590;2023-06-26T12:45:54;100899.59;;;24.62;54.05
78299;BME280;67556;55.656;12.590;2023-06-26T12:48:37;100923.06;;;24.68;53.91
78299;BME280;67556;55.656;12.590;2023-06-26T12:51:27;100926.94;;;24.56;54.59
78299;BME280;67556;55.656;12.590;2023-06-26T12:53:53;100924.19;;;24.57;54.61
78299;BME280;67556;55.656;12.590;2023-06-26T12:56:20;100916.22;;;24.48;55.02
78299;BME280;67556;55.656;12.590;2023-06-26T12:58:49;100922.47;;;24.52;54.36
78299;BME280;67556;55.656;12.590;2023-06-26T13:01:34;100925.63;;;24.29;55.25
78299;BME280;67556;55.656;12.590;2023-06-26T13:04:13;100923.06;;;24.21;55.51
78299;BME280;67556;55.656;12.590;2023-06-26T13:06:48;100925.81;;;24.18;56.13
78299;BME280;67556;55.656;12.590;2023-06-26T13:09:32;100915.81;;;24.20;56.14
78299;BME280;67556;55.656;12.590;2023-06-26T13:12:01;100927.78;;;24.11;56.72
78299;BME280;67556;55.656;12.590;2023-06-26T13:14:48;100949.78;;;23.99;57.08
78299;BME280;67556;55.656;12.590;2023-06-26T13:17:15;101043.06;;;23.46;58.96
78299;BME280;67556;55.656;12.590;2023-06-26T13:19:55;101067.97;;;22.20;59.75
78299;BME280;67556;55.656;12.590;2023-06-26T13:22:43;101062.16;;;21.38;64.77
78299;BME280;67556;55.656;12.590;2023-06-26T13:25:30;101041.66;;;20.51;70.13
78299;BME280;67556;55.656;12.590;2023-06-26T13:28:15;101031.72;;;20.70;71.88
78299;BME280;67556;55.656;12.590;2023-06-26T13:30:59;101020.91;;;20.26;71.72